sensor_id;sensor_type;location;lat;lon;timestamp;temperature;humidity
22781;DHT22;11557;50.884;4.322;2022-12-05T00:01:51;5.60;99.90
22781;DHT22;11557;50.884;4.322;2022-12-05T00:04:16;5.80;99.90
22781;DHT22;11557;50.884;4.322;2022-12-05T00:06:43;4.90;99.90
22781;DHT22;11557;50.884;4.322;2022-12-05T00:09:10;5.10;99.90
22781;DHT22;11557;50.884;4.322;2022-12-05T00:11:38;5.90;99.90
22781;DHT22;11557;50.884;4.322;2022-12-05T00:14:06;5.30;99.90
22781;DHT22;11557;50.884;4.322;2022-12-05T00:16:35;5.10;99.90
22781;DHT22;11557;50.884;4.322;2022-12-05T00:19:02;4.90;99.90
22781;DHT22;11557;50.884;4.322;2022-12-05T00:21:30;4.80;99.90
22781;DHT22;11557;50.884;4.322;2022-12-05T00:23:56;4.80;99.90
22781;DHT22;11557;50.884;4.322;2022-12-05T00:26:22;4.80;99.90
22781;DHT22;11557;50.884;4.322;2022-12-05T00:28:49;4.40;99.90
22781;DHT22;11557;50.884;4.322;2022-12-05T00:31:18;4.60;99.90
22781;DHT22;11557;50.884;4.322;2022-12-05T00:33:44;4.90;99.90
22781;DHT22;11557;50.884;4.322;2022-12-05T00:36:15;5.00;99.90
22781;DHT22;11557;50.884;4.322;2022-12-05T00:38:41;5.10;99.90
22781;DHT22;11557;50.884;4.322;2022-12-05T00:41:10;6.20;99.90
22781;DHT22;11557;50.884;4.322;2022-12-05T00:43:37;5.90;99.90
22781;DHT22;11557;50.884;4.322;2022-12-05T00:46:04;5.90;99.90
22781;DHT22;11557;50.884;4.322;2022-12-05T00:48:30;5.10;99.90
22781;DHT22;11557;50.884;4.322;2022-12-05T00:53:34;5.00;99.90
22781;DHT22;11557;50.884;4.322;2022-12-05T00:56:01;5.20;99.90
22781;DHT22;11557;50.884;4.322;2022-12-05T00:58:28;5.00;99.90
22781;DHT22;11557;50.884;4.322;2022-12-05T01:00:53;5.10;99.90
22781;DHT22;11557;50.884;4.322;2022-12-05T01:03:19;5.10;99.90
22781;DHT22;11557;50.884;4.322;2022-12-05T01:05:44;5.40;99.90
22781;DHT22;11557;50.884;4.322;2022-12-05T01:08:10;5.20;99.90
22781;DHT22;11557;50.884;4.322;2022-12-05T01:10:35;5.10;99.90
22781;DHT22;11557;50.884;4.322;2022-12-05T01:13:01;5.90;99.90
22781;DHT22;11557;50.884;4.322;2022-12-05T01:15:27;4.90;99.90
22781;DHT22;11557;50.884;4.322;2022-12-05T01:17:53;5.00;99.90
22781;DHT22;11557;50.884;4.322;2022-12-05T01:20:19;5.10;99.90
22781;DHT22;11557;50.884;4.322;2022-12-05T01:22:44;5.20;99.90
22781;DHT22;11557;50.884;4.322;2022-12-05T01:25:10;5.30;99.90
22781;DHT22;11557;50.884;4.322;2022-12-05T01:27:36;5.30;99.90
22781;DHT22;11557;50.884;4.322;2022-12-05T01:30:01;5.10;99.90
22781;DHT22;11557;50.884;4.322;2022-12-05T01:32:27;5.10;99.90
22781;DHT22;11557;50.884;4.322;2022-12-05T01:34:53;5.10;99.90
22781;DHT22;11557;50.884;4.322;2022-12-05T01:37:19;5.00;99.90
22781;DHT22;11557;50.884;4.322;2022-12-05T01:39:45;4.90;99.90
22781;DHT22;11557;50.884;4.322;2022-12-05T01:42:11;4.90;99.90
22781;DHT22;11557;50.884;4.322;2022-12-05T01:47:02;5.00;99.90
22781;DHT22;11557;50.884;4.322;2022-12-05T01:49:37;5.00;99.90
22781;DHT22;11557;50.884;4.322;2022-12-05T01:52:07;5.20;99.90
22781;DHT22;11557;50.884;4.322;2022-12-05T01:54:36;5.90;99.90
22781;DHT22;11557;50.884;4.322;2022-12-05T01:57:05;5.20;99.90
22781;DHT22;11557;50.884;4.322;2022-12-05T01:59:35;5.20;99.90
22781;DHT22;11557;50.884;4.322;2022-12-05T02:02:03;5.40;99.90
22781;DHT22;11557;50.884;4.322;2022-12-05T02:04:29;5.10;99.90
22781;DHT22;11557;50.884;4.322;2022-12-05T02:06:55;5.20;99.90
22781;DHT22;11557;50.884;4.322;2022-12-05T02:09:21;5.10;99.90
22781;DHT22;11557;50.884;4.322;2022-12-05T02:11:59;5.70;99.90
22781;DHT22;11557;50.884;4.322;2022-12-05T02:14:42;5.10;99.90
22781;DHT22;11557;50.884;4.322;2022-12-05T02:30:22;5.00;99.90
22781;DHT22;11557;50.884;4.322;2022-12-05T02:33:34;4.90;99.90
22781;DHT22;11557;50.884;4.322;2022-12-05T02:36:08;5.00;99.90
22781;DHT22;11557;50.884;4.322;2022-12-05T02:38:44;5.00;99.90
22781;DHT22;11557;50.884;4.322;2022-12-05T02:41:21;5.50;99.90
22781;DHT22;11557;50.884;4.322;2022-12-05T02:44:05;5.80;99.90
22781;DHT22;11557;50.884;4.322;2022-12-05T02:46:34;5.00;99.90
22781;DHT22;11557;50.884;4.322;2022-12-05T02:49:13;5.40;99.90
22781;DHT22;11557;50.884;4.322;2022-12-05T02:51:46;6.20;99.90
22781;DHT22;11557;50.884;4.322;2022-12-05T02:54:18;5.10;99.90
22781;DHT22;11557;50.884;4.322;2022-12-05T02:56:46;5.10;99.90
22781;DHT22;11557;50.884;4.322;2022-12-05T02:59:11;5.70;99.90
22781;DHT22;11557;50.884;4.322;2022-12-05T03:01:37;5.10;99.90
22781;DHT22;11557;50.884;4.322;2022-12-05T03:04:05;5.20;99.90
22781;DHT22;11557;50.884;4.322;2022-12-05T03:06:44;5.80;99.90
22781;DHT22;11557;50.884;4.322;2022-12-05T03:09:15;5.10;99.90
22781;DHT22;11557;50.884;4.322;2022-12-05T03:11:52;5.20;99.90
22781;DHT22;11557;50.884;4.322;2022-12-05T03:14:39;5.90;99.90
22781;DHT22;11557;50.884;4.322;2022-12-05T03:17:12;5.00;99.90
22781;DHT22;11557;50.884;4.322;2022-12-05T03:20:06;5.10;99.90
22781;DHT22;11557;50.884;4.322;2022-12-05T03:22:42;5.20;99.90
22781;DHT22;11557;50.884;4.322;2022-12-05T03:25:11;6.40;99.90
22781;DHT22;11557;50.884;4.322;2022-12-05T03:27:54;6.20;99.90
22781;DHT22;11557;50.884;4.322;2022-12-05T03:30:22;5.60;99.90
22781;DHT22;11557;50.884;4.322;2022-12-05T03:35:35;6.00;99.90
22781;DHT22;11557;50.884;4.322;2022-12-05T03:40:52;5.50;99.90
22781;DHT22;11557;50.884;4.322;2022-12-05T03:45:59;5.00;99.90
22781;DHT22;11557;50.884;4.322;2022-12-05T03:48:54;5.10;99.90
22781;DHT22;11557;50.884;4.322;2022-12-05T03:51:28;5.30;99.90
22781;DHT22;11557;50.884;4.322;2022-12-05T03:54:08;5.30;99.90
22781;DHT22;11557;50.884;4.322;2022-12-05T03:56:46;5.10;99.90
22781;DHT22;11557;50.884;4.322;2022-12-05T04:01:47;5.40;99.90
22781;DHT22;11557;50.884;4.322;2022-12-05T04:04:21;5.70;99.90
22781;DHT22;11557;50.884;4.322;2022-12-05T04:06:49;5.70;99.90
22781;DHT22;11557;50.884;4.322;2022-12-05T04:09:32;4.90;99.90
22781;DHT22;11557;50.884;4.322;2022-12-05T04:12:04;5.00;99.90
22781;DHT22;11557;50.884;4.322;2022-12-05T04:14:44;5.20;99.90
22781;DHT22;11557;50.884;4.322;2022-12-05T04:17:48;5.10;99.90
22781;DHT22;11557;50.884;4.322;2022-12-05T04:20:16;5.00;99.90
22781;DHT22;11557;50.884;4.322;2022-12-05T04:23:01;5.90;99.90
22781;DHT22;11557;50.884;4.322;2022-12-05T04:25:35;4.70;99.90
22781;DHT22;11557;50.884;4.322;2022-12-05T04:31:02;4.90;99.90
22781;DHT22;11557;50.884;4.322;2022-12-05T04:34:03;5.80;99.90
22781;DHT22;11557;50.884;4.322;2022-12-05T04:36:42;4.80;99.90
22781;DHT22;11557;50.884;4.322;2022-12-05T04:39:20;4.80;99.90
22781;DHT22;11557;50.884;4.322;2022-12-05T04:42:03;5.40;99.90
22781;DHT22;11557;50.884;4.322;2022-12-05T04:44:33;5.10;99.90
22781;DHT22;11557;50.884;4.322;2022-12-05T04:47:02;5.00;99.90
22781;DHT22;11557;50.884;4.322;2022-12-05T04:49:30;5.80;99.90
22781;DHT22;11557;50.884;4.322;2022-12-05T04:52:01;5.90;99.90
22781;DHT22;11557;50.884;4.322;2022-12-05T04:54:35;5.50;99.90
22781;DHT22;11557;50.884;4.322;2022-12-05T04:57:16;6.30;99.90
22781;DHT22;11557;50.884;4.322;2022-12-05T04:59:43;5.00;99.90
22781;DHT22;11557;50.884;4.322;2022-12-05T05:02:12;5.00;99.90
22781;DHT22;11557;50.884;4.322;2022-12-05T05:04:46;4.80;99.90
22781;DHT22;11557;50.884;4.322;2022-12-05T05:07:13;5.70;99.90
22781;DHT22;11557;50.884;4.322;2022-12-05T05:09:39;4.90;99.90
22781;DHT22;11557;50.884;4.322;2022-12-05T05:12:06;4.90;99.90
22781;DHT22;11557;50.884;4.322;2022-12-05T05:14:32;5.10;99.90
22781;DHT22;11557;50.884;4.322;2022-12-05T05:16:58;5.50;99.90
22781;DHT22;11557;50.884;4.322;2022-12-05T05:19:24;6.20;99.90
22781;DHT22;11557;50.884;4.322;2022-12-05T05:21:51;5.60;99.90
22781;DHT22;11557;50.884;4.322;2022-12-05T05:24:17;5.80;99.90
22781;DHT22;11557;50.884;4.322;2022-12-05T05:26:44;6.20;99.90
22781;DHT22;11557;50.884;4.322;2022-12-05T05:29:11;5.20;99.90
22781;DHT22;11557;50.884;4.322;2022-12-05T05:31:37;6.00;99.90
22781;DHT22;11557;50.884;4.322;2022-12-05T05:34:03;6.20;99.90
22781;DHT22;11557;50.884;4.322;2022-12-05T05:36:29;5.90;99.90
22781;DHT22;11557;50.884;4.322;2022-12-05T05:38:57;5.20;99.90
22781;DHT22;11557;50.884;4.322;2022-12-05T05:41:27;6.00;99.90
22781;DHT22;11557;50.884;4.322;2022-12-05T05:43:53;5.50;99.90
22781;DHT22;11557;50.884;4.322;2022-12-05T05:46:21;5.30;99.90
22781;DHT22;11557;50.884;4.322;2022-12-05T05:48:48;5.80;99.90
22781;DHT22;11557;50.884;4.322;2022-12-05T05:51:14;5.50;99.90
22781;DHT22;11557;50.884;4.322;2022-12-05T05:53:40;5.70;99.90
22781;DHT22;11557;50.884;4.322;2022-12-05T05:56:09;5.50;99.90
22781;DHT22;11557;50.884;4.322;2022-12-05T05:58:35;5.50;99.90
22781;DHT22;11557;50.884;4.322;2022-12-05T06:01:05;6.40;99.90
22781;DHT22;11557;50.884;4.322;2022-12-05T06:03:31;6.00;99.90
22781;DHT22;11557;50.884;4.322;2022-12-05T06:06:01;5.40;99.90
22781;DHT22;11557;50.884;4.322;2022-12-05T06:08:32;5.60;99.90
22781;DHT22;11557;50.884;4.322;2022-12-05T06:10:59;5.40;99.90
22781;DHT22;11557;50.884;4.322;2022-12-05T06:13:25;6.50;99.90
22781;DHT22;11557;50.884;4.322;2022-12-05T06:15:51;6.30;99.90
22781;DHT22;11557;50.884;4.322;2022-12-05T06:18:17;5.60;99.90
22781;DHT22;11557;50.884;4.322;2022-12-05T06:20:51;5.70;99.90
22781;DHT22;11557;50.884;4.322;2022-12-05T06:23:17;5.50;99.90
22781;DHT22;11557;50.884;4.322;2022-12-05T06:25:50;6.20;99.90
22781;DHT22;11557;50.884;4.322;2022-12-05T06:28:16;5.90;99.90
22781;DHT22;11557;50.884;4.322;2022-12-05T06:30:42;6.30;99.90
22781;DHT22;11557;50.884;4.322;2022-12-05T06:33:08;5.20;99.90
22781;DHT22;11557;50.884;4.322;2022-12-05T06:35:34;5.60;99.90
22781;DHT22;11557;50.884;4.322;2022-12-05T06:38:00;6.30;99.90
22781;DHT22;11557;50.884;4.322;2022-12-05T06:40:26;6.40;99.90
22781;DHT22;11557;50.884;4.322;2022-12-05T06:42:51;5.70;99.90
22781;DHT22;11557;50.884;4.322;2022-12-05T06:45:17;5.60;99.90
22781;DHT22;11557;50.884;4.322;2022-12-05T06:47:43;5.70;99.90
22781;DHT22;11557;50.884;4.322;2022-12-05T06:50:09;5.60;99.90
22781;DHT22;11557;50.884;4.322;2022-12-05T06:52:35;6.10;99.90
22781;DHT22;11557;50.884;4.322;2022-12-05T06:55:00;5.80;99.90
22781;DHT22;11557;50.884;4.322;2022-12-05T06:57:29;6.10;99.90
22781;DHT22;11557;50.884;4.322;2022-12-05T06:59:55;6.60;99.90
22781;DHT22;11557;50.884;4.322;2022-12-05T07:02:41;6.70;99.90
22781;DHT22;11557;50.884;4.322;2022-12-05T07:05:08;5.80;99.90
22781;DHT22;11557;50.884;4.322;2022-12-05T07:07:33;5.70;99.90
22781;DHT22;11557;50.884;4.322;2022-12-05T07:09:59;6.50;99.90
22781;DHT22;11557;50.884;4.322;2022-12-05T07:12:25;5.90;99.90
22781;DHT22;11557;50.884;4.322;2022-12-05T07:14:50;6.00;99.90
22781;DHT22;11557;50.884;4.322;2022-12-05T07:17:17;6.20;99.90
22781;DHT22;11557;50.884;4.322;2022-12-05T07:19:43;6.00;99.90
22781;DHT22;11557;50.884;4.322;2022-12-05T07:22:09;5.80;99.90
22781;DHT22;11557;50.884;4.322;2022-12-05T07:24:35;5.90;99.90
22781;DHT22;11557;50.884;4.322;2022-12-05T07:27:01;5.70;99.90
22781;DHT22;11557;50.884;4.322;2022-12-05T07:29:27;5.80;99.90
22781;DHT22;11557;50.884;4.322;2022-12-05T07:31:53;5.80;99.90
22781;DHT22;11557;50.884;4.322;2022-12-05T07:34:21;6.10;99.90
22781;DHT22;11557;50.884;4.322;2022-12-05T07:36:47;5.80;99.90
22781;DHT22;11557;50.884;4.322;2022-12-05T07:39:12;6.90;99.90
22781;DHT22;11557;50.884;4.322;2022-12-05T07:41:38;5.90;99.90
22781;DHT22;11557;50.884;4.322;2022-12-05T07:44:03;6.40;99.90
22781;DHT22;11557;50.884;4.322;2022-12-05T07:46:29;5.80;99.90
22781;DHT22;11557;50.884;4.322;2022-12-05T07:48:55;5.80;99.90
22781;DHT22;11557;50.884;4.322;2022-12-05T07:51:21;6.50;99.90
22781;DHT22;11557;50.884;4.322;2022-12-05T07:53:47;5.80;99.90
22781;DHT22;11557;50.884;4.322;2022-12-05T07:56:14;6.00;99.90
22781;DHT22;11557;50.884;4.322;2022-12-05T07:58:44;5.90;99.90
22781;DHT22;11557;50.884;4.322;2022-12-05T08:01:19;5.90;99.90
22781;DHT22;11557;50.884;4.322;2022-12-05T08:03:45;6.00;99.90
22781;DHT22;11557;50.884;4.322;2022-12-05T08:06:16;6.00;99.90
22781;DHT22;11557;50.884;4.322;2022-12-05T08:08:42;6.40;99.90
22781;DHT22;11557;50.884;4.322;2022-12-05T08:11:11;6.40;99.90
22781;DHT22;11557;50.884;4.322;2022-12-05T08:13:37;6.80;99.90
22781;DHT22;11557;50.884;4.322;2022-12-05T08:16:10;6.80;99.90
22781;DHT22;11557;50.884;4.322;2022-12-05T08:18:36;5.90;99.90
22781;DHT22;11557;50.884;4.322;2022-12-05T08:21:03;6.50;99.90
22781;DHT22;11557;50.884;4.322;2022-12-05T08:23:30;5.90;99.90
22781;DHT22;11557;50.884;4.322;2022-12-05T08:26:03;5.80;99.90
22781;DHT22;11557;50.884;4.322;2022-12-05T08:28:30;5.90;99.90
22781;DHT22;11557;50.884;4.322;2022-12-05T08:31:02;6.00;99.90
22781;DHT22;11557;50.884;4.322;2022-12-05T08:33:28;6.10;99.90
22781;DHT22;11557;50.884;4.322;2022-12-05T08:35:53;6.00;99.90
22781;DHT22;11557;50.884;4.322;2022-12-05T08:38:19;5.80;99.90
22781;DHT22;11557;50.884;4.322;2022-12-05T08:40:45;6.90;99.90
22781;DHT22;11557;50.884;4.322;2022-12-05T08:43:12;5.80;99.90
22781;DHT22;11557;50.884;4.322;2022-12-05T08:45:38;5.90;99.90
22781;DHT22;11557;50.884;4.322;2022-12-05T08:48:03;5.90;99.90
22781;DHT22;11557;50.884;4.322;2022-12-05T08:50:29;6.00;99.90
22781;DHT22;11557;50.884;4.322;2022-12-05T08:52:55;6.00;99.90
22781;DHT22;11557;50.884;4.322;2022-12-05T08:55:20;5.90;99.90
22781;DHT22;11557;50.884;4.322;2022-12-05T08:57:46;6.80;99.90
22781;DHT22;11557;50.884;4.322;2022-12-05T09:00:12;6.00;99.90
22781;DHT22;11557;50.884;4.322;2022-12-05T09:02:37;5.90;99.90
22781;DHT22;11557;50.884;4.322;2022-12-05T09:05:03;6.40;99.90
22781;DHT22;11557;50.884;4.322;2022-12-05T09:07:29;6.00;99.90
22781;DHT22;11557;50.884;4.322;2022-12-05T09:09:54;5.70;99.90
22781;DHT22;11557;50.884;4.322;2022-12-05T09:12:20;6.70;99.90
22781;DHT22;11557;50.884;4.322;2022-12-05T09:14:45;6.20;99.90
22781;DHT22;11557;50.884;4.322;2022-12-05T09:17:11;6.20;99.90
22781;DHT22;11557;50.884;4.322;2022-12-05T09:19:36;5.90;99.90
22781;DHT22;11557;50.884;4.322;2022-12-05T09:22:03;6.50;99.90
22781;DHT22;11557;50.884;4.322;2022-12-05T09:24:29;6.80;99.90
22781;DHT22;11557;50.884;4.322;2022-12-05T09:26:54;6.50;99.90
22781;DHT22;11557;50.884;4.322;2022-12-05T09:29:20;6.60;99.90
22781;DHT22;11557;50.884;4.322;2022-12-05T09:31:46;7.20;99.90
22781;DHT22;11557;50.884;4.322;2022-12-05T09:34:13;6.40;99.90
22781;DHT22;11557;50.884;4.322;2022-12-05T09:36:40;6.50;99.90
22781;DHT22;11557;50.884;4.322;2022-12-05T09:39:06;7.40;99.90
22781;DHT22;11557;50.884;4.322;2022-12-05T09:50:22;6.60;99.90
22781;DHT22;11557;50.884;4.322;2022-12-05T09:53:18;6.60;99.90
22781;DHT22;11557;50.884;4.322;2022-12-05T10:07:09;6.70;99.90
22781;DHT22;11557;50.884;4.322;2022-12-05T10:09:51;6.50;99.90
22781;DHT22;11557;50.884;4.322;2022-12-05T10:15:38;6.70;99.90
22781;DHT22;11557;50.884;4.322;2022-12-05T10:18:14;6.90;99.90
22781;DHT22;11557;50.884;4.322;2022-12-05T10:20:55;7.00;99.90
22781;DHT22;11557;50.884;4.322;2022-12-05T10:26:10;7.30;99.90
22781;DHT22;11557;50.884;4.322;2022-12-05T10:29:05;7.00;99.90
22781;DHT22;11557;50.884;4.322;2022-12-05T10:31:30;7.30;99.90
22781;DHT22;11557;50.884;4.322;2022-12-05T10:34:14;8.00;99.90
22781;DHT22;11557;50.884;4.322;2022-12-05T10:37:04;6.90;99.90
22781;DHT22;11557;50.884;4.322;2022-12-05T10:39:33;6.90;99.90
22781;DHT22;11557;50.884;4.322;2022-12-05T10:41:58;7.50;99.90
22781;DHT22;11557;50.884;4.322;2022-12-05T10:44:24;7.30;99.90
22781;DHT22;11557;50.884;4.322;2022-12-05T10:46:50;7.10;99.90
22781;DHT22;11557;50.884;4.322;2022-12-05T10:49:17;7.30;99.90
22781;DHT22;11557;50.884;4.322;2022-12-05T10:51:43;6.70;99.90
22781;DHT22;11557;50.884;4.322;2022-12-05T10:54:38;7.30;99.90
22781;DHT22;11557;50.884;4.322;2022-12-05T10:57:26;6.70;99.90
22781;DHT22;11557;50.884;4.322;2022-12-05T10:59:52;6.60;99.90
22781;DHT22;11557;50.884;4.322;2022-12-05T11:02:30;7.70;99.90
22781;DHT22;11557;50.884;4.322;2022-12-05T11:04:57;6.80;99.90
22781;DHT22;11557;50.884;4.322;2022-12-05T11:07:37;7.20;99.90
22781;DHT22;11557;50.884;4.322;2022-12-05T11:10:30;6.80;99.90
22781;DHT22;11557;50.884;4.322;2022-12-05T11:12:58;6.70;99.90
22781;DHT22;11557;50.884;4.322;2022-12-05T11:15:27;7.10;99.90
22781;DHT22;11557;50.884;4.322;2022-12-05T11:17:54;6.80;99.90
22781;DHT22;11557;50.884;4.322;2022-12-05T11:22:54;6.70;99.90
22781;DHT22;11557;50.884;4.322;2022-12-05T11:25:32;6.70;99.90
22781;DHT22;11557;50.884;4.322;2022-12-05T11:28:22;6.70;99.90
22781;DHT22;11557;50.884;4.322;2022-12-05T11:33:32;6.70;99.90
22781;DHT22;11557;50.884;4.322;2022-12-05T11:36:23;7.30;99.90
22781;DHT22;11557;50.884;4.322;2022-12-05T11:38:47;7.00;99.90
22781;DHT22;11557;50.884;4.322;2022-12-05T11:55:14;7.20;99.90
22781;DHT22;11557;50.884;4.322;2022-12-05T12:03:32;6.80;99.90
22781;DHT22;11557;50.884;4.322;2022-12-05T12:06:27;6.90;99.90
22781;DHT22;11557;50.884;4.322;2022-12-05T12:12:32;7.00;99.90
22781;DHT22;11557;50.884;4.322;2022-12-05T12:20:38;7.00;99.90
22781;DHT22;11557;50.884;4.322;2022-12-05T12:25:49;7.30;99.90
22781;DHT22;11557;50.884;4.322;2022-12-05T12:31:33;7.20;99.90
22781;DHT22;11557;50.884;4.322;2022-12-05T12:37:05;7.70;99.90
22781;DHT22;11557;50.884;4.322;2022-12-05T12:39:51;6.80;99.90
22781;DHT22;11557;50.884;4.322;2022-12-05T12:42:36;7.20;99.90
22781;DHT22;11557;50.884;4.322;2022-12-05T12:48:07;6.60;99.90
22781;DHT22;11557;50.884;4.322;2022-12-05T12:50:41;7.00;99.90
22781;DHT22;11557;50.884;4.322;2022-12-05T12:53:34;8.00;99.90
22781;DHT22;11557;50.884;4.322;2022-12-05T12:56:43;7.30;99.90
22781;DHT22;11557;50.884;4.322;2022-12-05T12:59:19;7.30;99.90
22781;DHT22;11557;50.884;4.322;2022-12-05T13:04:52;7.40;99.90
22781;DHT22;11557;50.884;4.322;2022-12-05T13:07:25;8.10;99.90
22781;DHT22;11557;50.884;4.322;2022-12-05T13:10:22;7.50;99.90
22781;DHT22;11557;50.884;4.322;2022-12-05T13:12:43;7.90;99.90
22781;DHT22;11557;50.884;4.322;2022-12-05T13:15:15;7.60;99.90
22781;DHT22;11557;50.884;4.322;2022-12-05T13:17:44;8.10;99.90
22781;DHT22;11557;50.884;4.322;2022-12-05T13:20:32;7.70;99.90
22781;DHT22;11557;50.884;4.322;2022-12-05T13:22:59;8.60;99.90
22781;DHT22;11557;50.884;4.322;2022-12-05T13:25:32;7.70;99.90
22781;DHT22;11557;50.884;4.322;2022-12-05T13:28:02;8.30;99.90
22781;DHT22;11557;50.884;4.322;2022-12-05T13:30:28;7.80;99.90
22781;DHT22;11557;50.884;4.322;2022-12-05T13:33:04;8.20;99.90
22781;DHT22;11557;50.884;4.322;2022-12-05T13:35:36;7.30;99.90
22781;DHT22;11557;50.884;4.322;2022-12-05T13:38:27;8.20;99.90
22781;DHT22;11557;50.884;4.322;2022-12-05T13:41:12;7.50;99.90
22781;DHT22;11557;50.884;4.322;2022-12-05T13:43:57;8.10;99.90
22781;DHT22;11557;50.884;4.322;2022-12-05T13:46:29;8.40;99.90
22781;DHT22;11557;50.884;4.322;2022-12-05T13:49:05;8.10;99.90
22781;DHT22;11557;50.884;4.322;2022-12-05T13:51:36;8.30;99.90
22781;DHT22;11557;50.884;4.322;2022-12-05T13:54:10;8.70;99.90
22781;DHT22;11557;50.884;4.322;2022-12-05T13:56:58;7.40;99.90
22781;DHT22;11557;50.884;4.322;2022-12-05T14:00:00;7.40;99.90
22781;DHT22;11557;50.884;4.322;2022-12-05T14:07:49;7.40;99.90
22781;DHT22;11557;50.884;4.322;2022-12-05T14:15:42;8.30;99.90
22781;DHT22;11557;50.884;4.322;2022-12-05T14:18:15;7.70;99.90
22781;DHT22;11557;50.884;4.322;2022-12-05T14:20:57;7.90;99.90
22781;DHT22;11557;50.884;4.322;2022-12-05T14:32:24;6.60;99.90
22781;DHT22;11557;50.884;4.322;2022-12-05T14:37:35;6.80;99.90
22781;DHT22;11557;50.884;4.322;2022-12-05T14:43:19;7.00;99.90
22781;DHT22;11557;50.884;4.322;2022-12-05T14:53:39;6.90;99.90
22781;DHT22;11557;50.884;4.322;2022-12-05T14:56:19;7.00;99.90
22781;DHT22;11557;50.884;4.322;2022-12-05T14:58:58;7.50;99.90
22781;DHT22;11557;50.884;4.322;2022-12-05T15:01:31;7.40;99.90
22781;DHT22;11557;50.884;4.322;2022-12-05T15:04:16;6.30;99.90
22781;DHT22;11557;50.884;4.322;2022-12-05T15:12:03;6.50;99.90
22781;DHT22;11557;50.884;4.322;2022-12-05T15:14:32;6.40;99.90
22781;DHT22;11557;50.884;4.322;2022-12-05T15:17:01;6.60;99.90
22781;DHT22;11557;50.884;4.322;2022-12-05T15:19:32;6.60;99.90
22781;DHT22;11557;50.884;4.322;2022-12-05T15:22:05;7.30;99.90
22781;DHT22;11557;50.884;4.322;2022-12-05T15:24:36;6.70;99.90
22781;DHT22;11557;50.884;4.322;2022-12-05T15:27:04;5.90;99.90
22781;DHT22;11557;50.884;4.322;2022-12-05T15:29:31;6.80;99.90
22781;DHT22;11557;50.884;4.322;2022-12-05T15:34:45;6.70;99.90
22781;DHT22;11557;50.884;4.322;2022-12-05T15:37:33;6.60;99.90
22781;DHT22;11557;50.884;4.322;2022-12-05T15:40:13;6.70;99.90
22781;DHT22;11557;50.884;4.322;2022-12-05T15:42:46;6.80;99.90
22781;DHT22;11557;50.884;4.322;2022-12-05T15:47:48;7.00;99.90
22781;DHT22;11557;50.884;4.322;2022-12-05T15:50:23;6.90;99.90
22781;DHT22;11557;50.884;4.322;2022-12-05T15:55:53;6.70;99.90
22781;DHT22;11557;50.884;4.322;2022-12-05T16:00:52;7.00;99.90
22781;DHT22;11557;50.884;4.322;2022-12-05T16:03:38;6.90;99.90
22781;DHT22;11557;50.884;4.322;2022-12-05T16:06:12;6.80;99.90
22781;DHT22;11557;50.884;4.322;2022-12-05T16:08:46;6.80;99.90
22781;DHT22;11557;50.884;4.322;2022-12-05T16:11:13;6.80;99.90
22781;DHT22;11557;50.884;4.322;2022-12-05T16:13:50;6.70;99.90
22781;DHT22;11557;50.884;4.322;2022-12-05T16:16:19;6.70;99.90
22781;DHT22;11557;50.884;4.322;2022-12-05T16:18:52;7.50;99.90
22781;DHT22;11557;50.884;4.322;2022-12-05T16:21:33;6.80;99.90
22781;DHT22;11557;50.884;4.322;2022-12-05T16:24:27;6.50;99.90
22781;DHT22;11557;50.884;4.322;2022-12-05T16:27:03;6.70;99.90
22781;DHT22;11557;50.884;4.322;2022-12-05T16:29:34;7.10;99.90
22781;DHT22;11557;50.884;4.322;2022-12-05T16:32:23;6.70;99.90
22781;DHT22;11557;50.884;4.322;2022-12-05T16:34:47;6.50;99.90
22781;DHT22;11557;50.884;4.322;2022-12-05T16:37:20;6.70;99.90
22781;DHT22;11557;50.884;4.322;2022-12-05T16:39:48;6.90;99.90
22781;DHT22;11557;50.884;4.322;2022-12-05T16:42:27;7.10;99.90
22781;DHT22;11557;50.884;4.322;2022-12-05T16:50:23;7.40;99.90
22781;DHT22;11557;50.884;4.322;2022-12-05T16:52:49;7.00;99.90
22781;DHT22;11557;50.884;4.322;2022-12-05T16:55:15;8.00;99.90
22781;DHT22;11557;50.884;4.322;2022-12-05T16:57:41;7.60;99.90
22781;DHT22;11557;50.884;4.322;2022-12-05T17:00:13;8.10;99.90
22781;DHT22;11557;50.884;4.322;2022-12-05T17:02:39;6.90;99.90
22781;DHT22;11557;50.884;4.322;2022-12-05T17:05:13;6.80;99.90
22781;DHT22;11557;50.884;4.322;2022-12-05T17:07:42;6.90;99.90
22781;DHT22;11557;50.884;4.322;2022-12-05T17:10:08;6.90;99.90
22781;DHT22;11557;50.884;4.322;2022-12-05T17:12:34;6.90;99.90
22781;DHT22;11557;50.884;4.322;2022-12-05T17:14:59;7.00;99.90
22781;DHT22;11557;50.884;4.322;2022-12-05T17:17:25;6.80;99.90
22781;DHT22;11557;50.884;4.322;2022-12-05T17:19:51;6.40;99.90
22781;DHT22;11557;50.884;4.322;2022-12-05T17:22:16;6.20;99.90
22781;DHT22;11557;50.884;4.322;2022-12-05T17:24:42;7.20;99.90
22781;DHT22;11557;50.884;4.322;2022-12-05T17:27:11;6.40;99.90
22781;DHT22;11557;50.884;4.322;2022-12-05T17:29:37;6.30;99.90
22781;DHT22;11557;50.884;4.322;2022-12-05T17:32:03;6.80;99.90
22781;DHT22;11557;50.884;4.322;2022-12-05T17:34:29;6.50;99.90
22781;DHT22;11557;50.884;4.322;2022-12-05T17:36:55;7.60;99.90
22781;DHT22;11557;50.884;4.322;2022-12-05T17:39:20;7.10;99.90
22781;DHT22;11557;50.884;4.322;2022-12-05T17:41:46;7.30;99.90
22781;DHT22;11557;50.884;4.322;2022-12-05T17:44:13;7.80;99.90
22781;DHT22;11557;50.884;4.322;2022-12-05T17:46:40;7.10;99.90
22781;DHT22;11557;50.884;4.322;2022-12-05T17:49:12;7.40;99.90
22781;DHT22;11557;50.884;4.322;2022-12-05T17:51:39;6.60;99.90
22781;DHT22;11557;50.884;4.322;2022-12-05T17:54:05;6.60;99.90
22781;DHT22;11557;50.884;4.322;2022-12-05T17:56:31;7.50;99.90
22781;DHT22;11557;50.884;4.322;2022-12-05T17:58:57;7.20;99.90
22781;DHT22;11557;50.884;4.322;2022-12-05T18:01:22;6.90;99.90
22781;DHT22;11557;50.884;4.322;2022-12-05T18:03:48;6.50;99.90
22781;DHT22;11557;50.884;4.322;2022-12-05T18:06:14;6.10;99.90
22781;DHT22;11557;50.884;4.322;2022-12-05T18:08:40;6.10;99.90
22781;DHT22;11557;50.884;4.322;2022-12-05T18:11:10;6.50;99.90
22781;DHT22;11557;50.884;4.322;2022-12-05T18:13:37;7.50;99.90
22781;DHT22;11557;50.884;4.322;2022-12-05T18:16:03;7.40;99.90
22781;DHT22;11557;50.884;4.322;2022-12-05T18:18:29;6.80;99.90
22781;DHT22;11557;50.884;4.322;2022-12-05T18:21:07;7.30;99.90
22781;DHT22;11557;50.884;4.322;2022-12-05T18:23:34;7.00;99.90
22781;DHT22;11557;50.884;4.322;2022-12-05T18:26:00;7.00;99.90
22781;DHT22;11557;50.884;4.322;2022-12-05T18:28:26;7.60;99.90
22781;DHT22;11557;50.884;4.322;2022-12-05T18:31:09;7.20;99.90
22781;DHT22;11557;50.884;4.322;2022-12-05T18:33:35;7.00;99.90
22781;DHT22;11557;50.884;4.322;2022-12-05T18:36:06;6.90;99.90
22781;DHT22;11557;50.884;4.322;2022-12-05T18:38:33;7.00;99.90
22781;DHT22;11557;50.884;4.322;2022-12-05T18:41:00;7.50;99.90
22781;DHT22;11557;50.884;4.322;2022-12-05T18:43:26;7.20;99.90
22781;DHT22;11557;50.884;4.322;2022-12-05T18:45:59;7.90;99.90
22781;DHT22;11557;50.884;4.322;2022-12-05T18:48:25;7.40;99.90
22781;DHT22;11557;50.884;4.322;2022-12-05T18:50:51;7.00;99.90